sensor_id;sensor_type;location;lat;lon;timestamp;P1;durP1;ratioP1;P2;durP2;ratioP2
54539;SDS011;40438;52.992;18.604;2023-06-22T00:00:29;13.98;;;10.75;;
54539;SDS011;40438;52.992;18.604;2023-06-22T00:02:54;16.88;;;11.05;;
54539;SDS011;40438;52.992;18.604;2023-06-22T00:05:20;18.02;;;10.85;;
54539;SDS011;40438;52.992;18.604;2023-06-22T00:07:47;14.40;;;10.25;;
54539;SDS011;40438;52.992;18.604;2023-06-22T00:10:13;12.43;;;10.10;;
54539;SDS011;40438;52.992;18.604;2023-06-22T00:12:39;12.27;;;9.02;;
54539;SDS011;40438;52.992;18.604;2023-06-22T00:15:05;14.63;;;10.30;;
54539;SDS011;40438;52.992;18.604;2023-06-22T00:17:31;15.10;;;10.25;;
54539;SDS011;40438;52.992;18.604;2023-06-22T00:19:57;16.38;;;10.35;;
54539;SDS011;40438;52.992;18.604;2023-06-22T00:22:23;15.35;;;10.38;;
54539;SDS011;40438;52.992;18.604;2023-06-22T00:24:50;14.75;;;9.85;;
54539;SDS011;40438;52.992;18.604;2023-06-22T00:27:15;16.52;;;10.48;;
54539;SDS011;40438;52.992;18.604;2023-06-22T00:29:41;14.07;;;10.73;;
54539;SDS011;40438;52.992;18.604;2023-06-22T00:32:07;16.98;;;10.25;;
54539;SDS011;40438;52.992;18.604;2023-06-22T00:34:33;16.33;;;10.50;;
54539;SDS011;40438;52.992;18.604;2023-06-22T00:36:59;20.05;;;11.75;;
54539;SDS011;40438;52.992;18.604;2023-06-22T00:39:24;17.38;;;10.93;;
54539;SDS011;40438;52.992;18.604;2023-06-22T00:41:52;16.48;;;10.98;;
54539;SDS011;40438;52.992;18.604;2023-06-22T00:44:17;15.35;;;10.57;;
54539;SDS011;40438;52.992;18.604;2023-06-22T00:46:43;14.38;;;10.25;;
54539;SDS011;40438;52.992;18.604;2023-06-22T00:49:09;17.77;;;10.98;;
54539;SDS011;40438;52.992;18.604;2023-06-22T00:51:35;15.80;;;11.15;;
54539;SDS011;40438;52.992;18.604;2023-06-22T00:54:01;14.95;;;10.27;;
54539;SDS011;40438;52.992;18.604;2023-06-22T00:56:27;15.05;;;11.10;;
54539;SDS011;40438;52.992;18.604;2023-06-22T00:58:54;17.45;;;11.85;;
54539;SDS011;40438;52.992;18.604;2023-06-22T01:01:20;16.08;;;11.20;;
54539;SDS011;40438;52.992;18.604;2023-06-22T01:03:47;16.83;;;11.18;;
54539;SDS011;40438;52.992;18.604;2023-06-22T01:06:15;16.50;;;11.00;;
54539;SDS011;40438;52.992;18.604;2023-06-22T01:08:46;15.45;;;11.35;;
54539;SDS011;40438;52.992;18.604;2023-06-22T01:11:17;14.75;;;10.25;;
54539;SDS011;40438;52.992;18.604;2023-06-22T01:13:50;20.55;;;11.63;;
54539;SDS011;40438;52.992;18.604;2023-06-22T01:16:26;15.13;;;11.10;;
54539;SDS011;40438;52.992;18.604;2023-06-22T01:18:55;15.40;;;11.68;;
54539;SDS011;40438;52.992;18.604;2023-06-22T01:21:28;16.55;;;11.50;;
54539;SDS011;40438;52.992;18.604;2023-06-22T01:24:01;21.50;;;12.77;;
54539;SDS011;40438;52.992;18.604;2023-06-22T01:26:37;18.17;;;11.98;;
54539;SDS011;40438;52.992;18.604;2023-06-22T01:29:08;17.05;;;11.40;;
54539;SDS011;40438;52.992;18.604;2023-06-22T01:31:36;17.42;;;11.98;;
54539;SDS011;40438;52.992;18.604;2023-06-22T01:34:04;16.83;;;11.52;;
54539;SDS011;40438;52.992;18.604;2023-06-22T01:36:31;13.73;;;11.05;;
54539;SDS011;40438;52.992;18.604;2023-06-22T01:38:58;14.43;;;11.55;;
54539;SDS011;40438;52.992;18.604;2023-06-22T01:41:25;22.55;;;12.02;;
54539;SDS011;40438;52.992;18.604;2023-06-22T01:43:53;16.85;;;11.65;;
54539;SDS011;40438;52.992;18.604;2023-06-22T01:46:21;15.43;;;11.25;;
54539;SDS011;40438;52.992;18.604;2023-06-22T01:48:48;14.10;;;10.65;;
54539;SDS011;40438;52.992;18.604;2023-06-22T01:51:15;16.42;;;10.75;;
54539;SDS011;40438;52.992;18.604;2023-06-22T01:53:41;14.00;;;10.20;;
54539;SDS011;40438;52.992;18.604;2023-06-22T01:56:07;19.35;;;11.00;;
54539;SDS011;40438;52.992;18.604;2023-06-22T01:58:33;13.75;;;10.80;;
54539;SDS011;40438;52.992;18.604;2023-06-22T02:01:06;17.30;;;10.82;;
54539;SDS011;40438;52.992;18.604;2023-06-22T02:03:37;13.75;;;10.68;;
54539;SDS011;40438;52.992;18.604;2023-06-22T02:06:07;19.40;;;10.73;;
54539;SDS011;40438;52.992;18.604;2023-06-22T02:08:37;14.75;;;9.65;;
54539;SDS011;40438;52.992;18.604;2023-06-22T02:11:07;13.98;;;10.20;;
54539;SDS011;40438;52.992;18.604;2023-06-22T02:13:35;18.25;;;10.25;;
54539;SDS011;40438;52.992;18.604;2023-06-22T02:16:02;13.23;;;9.77;;
54539;SDS011;40438;52.992;18.604;2023-06-22T02:18:28;15.07;;;10.50;;
54539;SDS011;40438;52.992;18.604;2023-06-22T02:20:55;14.27;;;10.05;;
54539;SDS011;40438;52.992;18.604;2023-06-22T02:23:21;14.48;;;10.57;;
54539;SDS011;40438;52.992;18.604;2023-06-22T02:25:47;12.50;;;9.63;;
54539;SDS011;40438;52.992;18.604;2023-06-22T02:28:13;14.48;;;10.43;;
54539;SDS011;40438;52.992;18.604;2023-06-22T02:30:39;18.02;;;10.63;;
54539;SDS011;40438;52.992;18.604;2023-06-22T02:33:06;15.07;;;11.00;;
54539;SDS011;40438;52.992;18.604;2023-06-22T02:35:32;16.30;;;10.80;;
54539;SDS011;40438;52.992;18.604;2023-06-22T02:37:59;15.50;;;10.48;;
54539;SDS011;40438;52.992;18.604;2023-06-22T02:40:26;15.25;;;11.02;;
54539;SDS011;40438;52.992;18.604;2023-06-22T02:42:52;12.80;;;9.73;;
54539;SDS011;40438;52.992;18.604;2023-06-22T02:45:18;13.88;;;10.35;;
54539;SDS011;40438;52.992;18.604;2023-06-22T02:47:44;13.88;;;10.20;;
54539;SDS011;40438;52.992;18.604;2023-06-22T02:50:10;15.00;;;10.38;;
54539;SDS011;40438;52.992;18.604;2023-06-22T02:52:37;16.25;;;10.38;;
54539;SDS011;40438;52.992;18.604;2023-06-22T02:55:05;11.85;;;9.82;;
54539;SDS011;40438;52.992;18.604;2023-06-22T02:57:31;14.77;;;10.15;;
54539;SDS011;40438;52.992;18.604;2023-06-22T02:59:57;15.10;;;10.13;;
54539;SDS011;40438;52.992;18.604;2023-06-22T03:02:23;13.55;;;9.18;;
54539;SDS011;40438;52.992;18.604;2023-06-22T03:04:49;12.30;;;8.63;;
54539;SDS011;40438;52.992;18.604;2023-06-22T03:07:15;11.35;;;8.95;;
54539;SDS011;40438;52.992;18.604;2023-06-22T03:09:41;12.43;;;8.80;;
54539;SDS011;40438;52.992;18.604;2023-06-22T03:12:08;12.30;;;8.68;;
54539;SDS011;40438;52.992;18.604;2023-06-22T03:14:48;10.38;;;7.97;;
54539;SDS011;40438;52.992;18.604;2023-06-22T03:17:14;12.35;;;7.80;;
54539;SDS011;40438;52.992;18.604;2023-06-22T03:19:40;10.95;;;7.68;;
54539;SDS011;40438;52.992;18.604;2023-06-22T03:22:06;11.43;;;8.38;;
54539;SDS011;40438;52.992;18.604;2023-06-22T03:24:31;11.80;;;7.90;;
54539;SDS011;40438;52.992;18.604;2023-06-22T03:26:57;11.85;;;8.07;;
54539;SDS011;40438;52.992;18.604;2023-06-22T03:29:24;9.63;;;8.13;;
54539;SDS011;40438;52.992;18.604;2023-06-22T03:31:51;12.82;;;8.73;;
54539;SDS011;40438;52.992;18.604;2023-06-22T03:34:17;10.40;;;7.60;;
54539;SDS011;40438;52.992;18.604;2023-06-22T03:36:43;9.63;;;7.68;;
54539;SDS011;40438;52.992;18.604;2023-06-22T03:39:09;13.40;;;8.38;;
54539;SDS011;40438;52.992;18.604;2023-06-22T03:41:35;12.05;;;7.43;;
54539;SDS011;40438;52.992;18.604;2023-06-22T03:44:01;11.50;;;7.75;;
54539;SDS011;40438;52.992;18.604;2023-06-22T03:46:28;11.15;;;7.05;;
54539;SDS011;40438;52.992;18.604;2023-06-22T03:48:54;11.95;;;6.63;;
54539;SDS011;40438;52.992;18.604;2023-06-22T03:51:19;9.52;;;6.28;;
54539;SDS011;40438;52.992;18.604;2023-06-22T03:53:45;9.05;;;6.20;;
54539;SDS011;40438;52.992;18.604;2023-06-22T03:56:11;7.63;;;6.30;;
54539;SDS011;40438;52.992;18.604;2023-06-22T03:58:37;11.75;;;6.57;;
54539;SDS011;40438;52.992;18.604;2023-06-22T04:01:03;13.18;;;7.38;;
54539;SDS011;40438;52.992;18.604;2023-06-22T04:03:30;9.77;;;6.95;;
54539;SDS011;40438;52.992;18.604;2023-06-22T04:05:56;9.27;;;6.60;;
54539;SDS011;40438;52.992;18.604;2023-06-22T04:08:21;7.05;;;5.55;;
54539;SDS011;40438;52.992;18.604;2023-06-22T04:10:47;10.48;;;6.47;;
54539;SDS011;40438;52.992;18.604;2023-06-22T04:13:13;9.07;;;6.53;;
54539;SDS011;40438;52.992;18.604;2023-06-22T04:15:39;8.95;;;6.60;;
54539;SDS011;40438;52.992;18.604;2023-06-22T04:18:04;9.15;;;5.78;;
54539;SDS011;40438;52.992;18.604;2023-06-22T04:20:32;14.55;;;7.10;;
54539;SDS011;40438;52.992;18.604;2023-06-22T04:22:58;9.65;;;6.20;;
54539;SDS011;40438;52.992;18.604;2023-06-22T04:25:23;11.70;;;6.70;;
54539;SDS011;40438;52.992;18.604;2023-06-22T04:27:49;11.40;;;5.97;;
54539;SDS011;40438;52.992;18.604;2023-06-22T04:30:15;10.98;;;6.50;;
54539;SDS011;40438;52.992;18.604;2023-06-22T04:32:41;11.40;;;5.88;;
54539;SDS011;40438;52.992;18.604;2023-06-22T04:35:07;12.27;;;6.72;;
54539;SDS011;40438;52.992;18.604;2023-06-22T04:37:34;11.23;;;6.10;;
54539;SDS011;40438;52.992;18.604;2023-06-22T04:40:00;8.27;;;5.97;;
54539;SDS011;40438;52.992;18.604;2023-06-22T04:42:26;10.65;;;5.82;;
54539;SDS011;40438;52.992;18.604;2023-06-22T04:44:52;9.60;;;6.05;;
54539;SDS011;40438;52.992;18.604;2023-06-22T04:47:18;8.75;;;6.07;;
54539;SDS011;40438;52.992;18.604;2023-06-22T04:49:43;8.57;;;5.78;;
54539;SDS011;40438;52.992;18.604;2023-06-22T04:52:11;7.95;;;6.10;;
54539;SDS011;40438;52.992;18.604;2023-06-22T04:54:39;11.57;;;6.05;;
54539;SDS011;40438;52.992;18.604;2023-06-22T04:57:06;8.95;;;5.68;;
54539;SDS011;40438;52.992;18.604;2023-06-22T04:59:33;8.57;;;5.18;;
54539;SDS011;40438;52.992;18.604;2023-06-22T05:01:59;7.35;;;5.95;;
54539;SDS011;40438;52.992;18.604;2023-06-22T05:04:26;6.97;;;5.45;;
54539;SDS011;40438;52.992;18.604;2023-06-22T05:06:52;10.05;;;5.40;;
54539;SDS011;40438;52.992;18.604;2023-06-22T05:09:19;9.30;;;6.47;;
54539;SDS011;40438;52.992;18.604;2023-06-22T05:11:46;12.75;;;5.68;;
54539;SDS011;40438;52.992;18.604;2023-06-22T05:14:12;9.35;;;5.10;;
54539;SDS011;40438;52.992;18.604;2023-06-22T05:16:38;10.63;;;5.80;;
54539;SDS011;40438;52.992;18.604;2023-06-22T05:19:06;9.52;;;6.22;;
54539;SDS011;40438;52.992;18.604;2023-06-22T05:21:32;10.38;;;5.45;;
54539;SDS011;40438;52.992;18.604;2023-06-22T05:23:57;8.90;;;5.72;;
54539;SDS011;40438;52.992;18.604;2023-06-22T05:26:23;8.80;;;5.93;;
54539;SDS011;40438;52.992;18.604;2023-06-22T05:28:51;12.48;;;5.60;;
54539;SDS011;40438;52.992;18.604;2023-06-22T05:31:16;8.68;;;5.95;;
54539;SDS011;40438;52.992;18.604;2023-06-22T05:33:42;9.10;;;5.80;;
54539;SDS011;40438;52.992;18.604;2023-06-22T05:36:09;11.00;;;6.13;;
54539;SDS011;40438;52.992;18.604;2023-06-22T05:38:35;9.07;;;5.47;;
54539;SDS011;40438;52.992;18.604;2023-06-22T05:41:00;11.27;;;5.93;;
54539;SDS011;40438;52.992;18.604;2023-06-22T05:43:26;17.92;;;7.45;;
54539;SDS011;40438;52.992;18.604;2023-06-22T05:45:54;10.18;;;5.82;;
54539;SDS011;40438;52.992;18.604;2023-06-22T05:48:19;9.77;;;6.03;;
54539;SDS011;40438;52.992;18.604;2023-06-22T05:50:45;8.07;;;5.57;;
54539;SDS011;40438;52.992;18.604;2023-06-22T05:53:11;9.75;;;5.60;;
54539;SDS011;40438;52.992;18.604;2023-06-22T05:55:37;7.57;;;5.55;;
54539;SDS011;40438;52.992;18.604;2023-06-22T05:58:02;8.88;;;5.38;;
54539;SDS011;40438;52.992;18.604;2023-06-22T06:00:28;8.25;;;5.53;;
54539;SDS011;40438;52.992;18.604;2023-06-22T06:02:56;11.68;;;5.50;;
54539;SDS011;40438;52.992;18.604;2023-06-22T06:05:21;9.48;;;5.47;;
54539;SDS011;40438;52.992;18.604;2023-06-22T06:07:47;10.23;;;6.18;;
54539;SDS011;40438;52.992;18.604;2023-06-22T06:10:13;8.10;;;5.70;;
54539;SDS011;40438;52.992;18.604;2023-06-22T06:12:39;9.25;;;5.72;;
54539;SDS011;40438;52.992;18.604;2023-06-22T06:15:05;10.00;;;5.65;;
54539;SDS011;40438;52.992;18.604;2023-06-22T06:17:31;9.18;;;5.80;;
54539;SDS011;40438;52.992;18.604;2023-06-22T06:19:59;8.70;;;5.63;;
54539;SDS011;40438;52.992;18.604;2023-06-22T06:22:26;10.10;;;5.25;;
54539;SDS011;40438;52.992;18.604;2023-06-22T06:24:51;9.57;;;5.55;;
54539;SDS011;40438;52.992;18.604;2023-06-22T06:27:17;7.72;;;5.28;;
54539;SDS011;40438;52.992;18.604;2023-06-22T06:29:43;9.60;;;5.50;;
54539;SDS011;40438;52.992;18.604;2023-06-22T06:32:09;10.55;;;5.07;;
54539;SDS011;40438;52.992;18.604;2023-06-22T06:34:34;15.13;;;5.28;;
54539;SDS011;40438;52.992;18.604;2023-06-22T06:37:02;9.68;;;5.07;;
54539;SDS011;40438;52.992;18.604;2023-06-22T06:39:28;8.02;;;5.10;;
54539;SDS011;40438;52.992;18.604;2023-06-22T06:41:54;9.50;;;5.00;;
54539;SDS011;40438;52.992;18.604;2023-06-22T06:44:20;10.45;;;5.22;;
54539;SDS011;40438;52.992;18.604;2023-06-22T06:46:46;7.45;;;4.90;;
54539;SDS011;40438;52.992;18.604;2023-06-22T06:49:11;8.13;;;5.18;;
54539;SDS011;40438;52.992;18.604;2023-06-22T06:51:37;6.40;;;5.22;;
54539;SDS011;40438;52.992;18.604;2023-06-22T06:54:04;11.70;;;5.60;;
54539;SDS011;40438;52.992;18.604;2023-06-22T06:56:30;11.10;;;4.93;;
54539;SDS011;40438;52.992;18.604;2023-06-22T06:58:56;7.60;;;5.05;;
54539;SDS011;40438;52.992;18.604;2023-06-22T07:01:22;6.70;;;4.43;;
54539;SDS011;40438;52.992;18.604;2023-06-22T07:03:47;6.47;;;4.75;;
54539;SDS011;40438;52.992;18.604;2023-06-22T07:06:13;7.38;;;4.70;;
54539;SDS011;40438;52.992;18.604;2023-06-22T07:08:39;6.07;;;4.82;;
54539;SDS011;40438;52.992;18.604;2023-06-22T07:11:06;7.80;;;4.78;;
54539;SDS011;40438;52.992;18.604;2023-06-22T07:13:32;10.68;;;4.85;;
54539;SDS011;40438;52.992;18.604;2023-06-22T07:15:58;8.35;;;4.60;;
54539;SDS011;40438;52.992;18.604;2023-06-22T07:18:23;8.50;;;4.75;;
54539;SDS011;40438;52.992;18.604;2023-06-22T07:20:49;7.45;;;4.35;;
54539;SDS011;40438;52.992;18.604;2023-06-22T07:23:16;6.47;;;4.35;;
54539;SDS011;40438;52.992;18.604;2023-06-22T07:25:42;9.75;;;4.30;;
54539;SDS011;40438;52.992;18.604;2023-06-22T07:28:09;7.70;;;4.53;;
54539;SDS011;40438;52.992;18.604;2023-06-22T07:30:35;9.57;;;4.93;;
54539;SDS011;40438;52.992;18.604;2023-06-22T07:33:01;8.65;;;4.97;;
54539;SDS011;40438;52.992;18.604;2023-06-22T07:35:27;9.25;;;4.70;;
54539;SDS011;40438;52.992;18.604;2023-06-22T07:37:52;10.32;;;4.38;;
54539;SDS011;40438;52.992;18.604;2023-06-22T07:40:18;7.15;;;4.25;;
54539;SDS011;40438;52.992;18.604;2023-06-22T07:42:44;5.45;;;4.28;;
54539;SDS011;40438;52.992;18.604;2023-06-22T07:45:11;9.15;;;5.65;;
54539;SDS011;40438;52.992;18.604;2023-06-22T07:47:37;6.43;;;4.60;;
54539;SDS011;40438;52.992;18.604;2023-06-22T07:50:03;6.75;;;4.13;;
54539;SDS011;40438;52.992;18.604;2023-06-22T07:52:29;4.93;;;3.95;;
54539;SDS011;40438;52.992;18.604;2023-06-22T07:54:55;4.65;;;3.20;;
54539;SDS011;40438;52.992;18.604;2023-06-22T07:57:21;6.35;;;3.20;;
54539;SDS011;40438;52.992;18.604;2023-06-22T07:59:47;4.57;;;2.85;;
54539;SDS011;40438;52.992;18.604;2023-06-22T08:02:14;5.10;;;2.72;;
54539;SDS011;40438;52.992;18.604;2023-06-22T08:04:40;4.20;;;3.10;;
54539;SDS011;40438;52.992;18.604;2023-06-22T08:07:06;4.75;;;3.70;;
54539;SDS011;40438;52.992;18.604;2023-06-22T08:09:33;7.88;;;3.30;;
54539;SDS011;40438;52.992;18.604;2023-06-22T08:11:59;6.95;;;3.20;;
54539;SDS011;40438;52.992;18.604;2023-06-22T08:14:25;4.65;;;2.70;;
54539;SDS011;40438;52.992;18.604;2023-06-22T08:16:51;3.88;;;2.67;;
54539;SDS011;40438;52.992;18.604;2023-06-22T08:19:18;8.40;;;2.92;;
54539;SDS011;40438;52.992;18.604;2023-06-22T08:21:44;4.80;;;2.72;;
54539;SDS011;40438;52.992;18.604;2023-06-22T08:24:10;4.18;;;2.83;;
54539;SDS011;40438;52.992;18.604;2023-06-22T08:26:36;6.88;;;3.70;;
54539;SDS011;40438;52.992;18.604;2023-06-22T08:29:01;3.88;;;2.58;;
54539;SDS011;40438;52.992;18.604;2023-06-22T08:31:27;3.95;;;3.00;;
54539;SDS011;40438;52.992;18.604;2023-06-22T08:33:53;5.07;;;2.88;;
54539;SDS011;40438;52.992;18.604;2023-06-22T08:36:20;5.18;;;2.45;;
54539;SDS011;40438;52.992;18.604;2023-06-22T08:38:46;4.30;;;2.55;;
54539;SDS011;40438;52.992;18.604;2023-06-22T08:41:12;4.22;;;2.97;;
54539;SDS011;40438;52.992;18.604;2023-06-22T08:43:38;4.00;;;2.83;;
54539;SDS011;40438;52.992;18.604;2023-06-22T08:46:03;6.28;;;2.60;;
54539;SDS011;40438;52.992;18.604;2023-06-22T08:48:29;4.28;;;2.60;;
54539;SDS011;40438;52.992;18.604;2023-06-22T08:50:55;3.30;;;2.67;;
54539;SDS011;40438;52.992;18.604;2023-06-22T08:53:22;3.83;;;2.47;;
54539;SDS011;40438;52.992;18.604;2023-06-22T08:55:48;3.60;;;2.40;;
54539;SDS011;40438;52.992;18.604;2023-06-22T08:58:13;3.70;;;2.92;;
54539;SDS011;40438;52.992;18.604;2023-06-22T09:00:39;3.13;;;2.17;;
54539;SDS011;40438;52.992;18.604;2023-06-22T09:03:05;4.18;;;2.45;;
54539;SDS011;40438;52.992;18.604;2023-06-22T09:05:31;3.17;;;1.98;;
54539;SDS011;40438;52.992;18.604;2023-06-22T09:07:56;4.55;;;2.50;;
54539;SDS011;40438;52.992;18.604;2023-06-22T09:10:24;3.38;;;2.42;;
54539;SDS011;40438;52.992;18.604;2023-06-22T09:12:49;4.07;;;2.50;;
54539;SDS011;40438;52.992;18.604;2023-06-22T09:15:15;4.07;;;2.33;;
54539;SDS011;40438;52.992;18.604;2023-06-22T09:17:41;6.07;;;2.40;;
54539;SDS011;40438;52.992;18.604;2023-06-22T09:20:07;2.60;;;2.08;;
54539;SDS011;40438;52.992;18.604;2023-06-22T09:22:34;2.83;;;2.55;;
54539;SDS011;40438;52.992;18.604;2023-06-22T09:24:59;2.97;;;1.95;;
54539;SDS011;40438;52.992;18.604;2023-06-22T09:27:27;3.25;;;2.10;;
54539;SDS011;40438;52.992;18.604;2023-06-22T09:29:52;2.92;;;2.33;;
54539;SDS011;40438;52.992;18.604;2023-06-22T09:32:18;2.15;;;1.92;;
54539;SDS011;40438;52.992;18.604;2023-06-22T09:34:44;7.57;;;2.10;;
54539;SDS011;40438;52.992;18.604;2023-06-22T09:37:10;3.55;;;1.85;;
54539;SDS011;40438;52.992;18.604;2023-06-22T09:39:35;4.18;;;1.88;;
54539;SDS011;40438;52.992;18.604;2023-06-22T09:42:01;3.30;;;2.05;;
54539;SDS011;40438;52.992;18.604;2023-06-22T09:44:28;3.13;;;2.00;;
54539;SDS011;40438;52.992;18.604;2023-06-22T09:46:54;3.58;;;1.98;;
54539;SDS011;40438;52.992;18.604;2023-06-22T09:49:20;6.43;;;2.50;;
54539;SDS011;40438;52.992;18.604;2023-06-22T09:51:46;8.05;;;2.40;;
54539;SDS011;40438;52.992;18.604;2023-06-22T09:54:11;4.32;;;2.15;;
54539;SDS011;40438;52.992;18.604;2023-06-22T09:56:37;4.82;;;2.35;;
54539;SDS011;40438;52.992;18.604;2023-06-22T09:59:03;4.82;;;2.35;;
54539;SDS011;40438;52.992;18.604;2023-06-22T10:01:30;4.10;;;2.22;;
54539;SDS011;40438;52.992;18.604;2023-06-22T10:03:56;2.60;;;2.05;;
54539;SDS011;40438;52.992;18.604;2023-06-22T10:06:22;3.15;;;2.10;;
54539;SDS011;40438;52.992;18.604;2023-06-22T10:08:48;3.45;;;2.22;;
54539;SDS011;40438;52.992;18.604;2023-06-22T10:11:15;3.08;;;2.05;;
54539;SDS011;40438;52.992;18.604;2023-06-22T10:13:41;2.97;;;2.30;;
54539;SDS011;40438;52.992;18.604;2023-06-22T10:16:07;4.28;;;2.35;;
54539;SDS011;40438;52.992;18.604;2023-06-22T10:18:34;5.32;;;2.10;;
54539;SDS011;40438;52.992;18.604;2023-06-22T10:20:59;3.10;;;2.05;;
54539;SDS011;40438;52.992;18.604;2023-06-22T10:23:25;2.15;;;1.85;;
54539;SDS011;40438;52.992;18.604;2023-06-22T10:25:51;2.40;;;2.20;;
54539;SDS011;40438;52.992;18.604;2023-06-22T10:28:17;3.90;;;1.60;;
54539;SDS011;40438;52.992;18.604;2023-06-22T10:30:43;2.95;;;2.13;;
54539;SDS011;40438;52.992;18.604;2023-06-22T10:33:08;3.67;;;1.90;;
54539;SDS011;40438;52.992;18.604;2023-06-22T10:35:36;2.97;;;1.92;;
54539;SDS011;40438;52.992;18.604;2023-06-22T10:38:02;3.63;;;1.95;;
54539;SDS011;40438;52.992;18.604;2023-06-22T10:40:28;3.72;;;1.85;;
54539;SDS011;40438;52.992;18.604;2023-06-22T10:42:54;3.60;;;2.20;;
54539;SDS011;40438;52.992;18.604;2023-06-22T10:45:20;3.35;;;2.17;;
54539;SDS011;40438;52.992;18.604;2023-06-22T10:47:45;2.85;;;2.22;;
54539;SDS011;40438;52.992;18.604;2023-06-22T10:50:11;2.20;;;2.00;;
54539;SDS011;40438;52.992;18.604;2023-06-22T10:52:38;2.33;;;1.73;;
54539;SDS011;40438;52.992;18.604;2023-06-22T10:55:05;3.42;;;2.22;;
54539;SDS011;40438;52.992;18.604;2023-06-22T10:57:31;3.00;;;1.98;;
54539;SDS011;40438;52.992;18.604;2023-06-22T10:59:57;2.67;;;1.95;;
54539;SDS011;40438;52.992;18.604;2023-06-22T11:02:23;3.10;;;2.13;;
54539;SDS011;40438;52.992;18.604;2023-06-22T11:04:49;2.38;;;2.10;;
54539;SDS011;40438;52.992;18.604;2023-06-22T11:07:15;4.47;;;2.17;;
54539;SDS011;40438;52.992;18.604;2023-06-22T11:09:42;2.75;;;1.90;;
54539;SDS011;40438;52.992;18.604;2023-06-22T11:12:08;7.57;;;2.25;;
54539;SDS011;40438;52.992;18.604;2023-06-22T11:14:34;3.15;;;1.98;;
54539;SDS011;40438;52.992;18.604;2023-06-22T11:17:00;3.33;;;2.05;;
54539;SDS011;40438;52.992;18.604;2023-06-22T11:19:25;2.42;;;2.08;;
54539;SDS011;40438;52.992;18.604;2023-06-22T11:21:51;2.75;;;1.80;;
54539;SDS011;40438;52.992;18.604;2023-06-22T11:24:17;4.22;;;1.88;;
54539;SDS011;40438;52.992;18.604;2023-06-22T11:26:44;2.30;;;1.80;;
54539;SDS011;40438;52.992;18.604;2023-06-22T11:29:10;1.92;;;1.70;;
54539;SDS011;40438;52.992;18.604;2023-06-22T11:31:36;2.60;;;2.03;;
54539;SDS011;40438;52.992;18.604;2023-06-22T11:34:01;2.92;;;1.83;;
54539;SDS011;40438;52.992;18.604;2023-06-22T11:36:28;3.33;;;2.35;;
54539;SDS011;40438;52.992;18.604;2023-06-22T11:38:54;2.92;;;2.10;;
54539;SDS011;40438;52.992;18.604;2023-06-22T11:41:20;3.28;;;2.05;;
54539;SDS011;40438;52.992;18.604;2023-06-22T11:43:47;2.60;;;2.03;;
54539;SDS011;40438;52.992;18.604;2023-06-22T11:46:13;5.15;;;2.10;;
54539;SDS011;40438;52.992;18.604;2023-06-22T11:48:39;3.25;;;1.80;;
54539;SDS011;40438;52.992;18.604;2023-06-22T11:51:04;4.40;;;2.10;;
54539;SDS011;40438;52.992;18.604;2023-06-22T11:53:30;2.92;;;1.90;;
54539;SDS011;40438;52.992;18.604;2023-06-22T11:55:56;3.25;;;2.15;;
54539;SDS011;40438;52.992;18.604;2023-06-22T11:58:22;5.60;;;2.03;;
54539;SDS011;40438;52.992;18.604;2023-06-22T12:00:49;3.35;;;2.20;;
54539;SDS011;40438;52.992;18.604;2023-06-22T12:03:15;2.65;;;2.03;;
54539;SDS011;40438;52.992;18.604;2023-06-22T12:05:41;3.80;;;2.20;;
54539;SDS011;40438;52.992;18.604;2023-06-22T12:08:06;3.83;;;2.42;;
54539;SDS011;40438;52.992;18.604;2023-06-22T12:10:32;3.90;;;2.50;;
54539;SDS011;40438;52.992;18.604;2023-06-22T12:12:58;2.90;;;2.28;;
54539;SDS011;40438;52.992;18.604;2023-06-22T12:15:24;3.45;;;2.30;;
54539;SDS011;40438;52.992;18.604;2023-06-22T12:17:51;5.10;;;2.75;;
54539;SDS011;40438;52.992;18.604;2023-06-22T12:20:17;2.33;;;2.10;;
54539;SDS011;40438;52.992;18.604;2023-06-22T12:22:43;3.17;;;2.50;;
54539;SDS011;40438;52.992;18.604;2023-06-22T12:25:09;4.15;;;2.45;;
54539;SDS011;40438;52.992;18.604;2023-06-22T12:27:35;3.78;;;2.50;;
54539;SDS011;40438;52.992;18.604;2023-06-22T12:30:01;4.88;;;2.25;;
54539;SDS011;40438;52.992;18.604;2023-06-22T12:32:27;3.83;;;2.50;;
54539;SDS011;40438;52.992;18.604;2023-06-22T12:34:54;2.47;;;2.13;;
54539;SDS011;40438;52.992;18.604;2023-06-22T12:37:20;2.83;;;2.33;;
54539;SDS011;40438;52.992;18.604;2023-06-22T12:39:46;4.07;;;2.40;;
54539;SDS011;40438;52.992;18.604;2023-06-22T12:42:12;6.28;;;2.40;;
54539;SDS011;40438;52.992;18.604;2023-06-22T12:44:38;4.72;;;2.33;;
54539;SDS011;40438;52.992;18.604;2023-06-22T12:47:04;5.20;;;2.65;;
54539;SDS011;40438;52.992;18.604;2023-06-22T12:49:31;3.72;;;2.67;;
54539;SDS011;40438;52.992;18.604;2023-06-22T12:51:58;2.60;;;2.40;;
54539;SDS011;40438;52.992;18.604;2023-06-22T12:54:24;3.30;;;2.13;;
54539;SDS011;40438;52.992;18.604;2023-06-22T12:56:49;9.02;;;2.58;;
54539;SDS011;40438;52.992;18.604;2023-06-22T12:59:15;4.75;;;2.30;;
54539;SDS011;40438;52.992;18.604;2023-06-22T13:01:41;4.72;;;2.50;;
54539;SDS011;40438;52.992;18.604;2023-06-22T13:04:07;3.15;;;2.30;;
54539;SDS011;40438;52.992;18.604;2023-06-22T13:06:32;5.97;;;2.38;;
54539;SDS011;40438;52.992;18.604;2023-06-22T13:08:59;5.68;;;2.35;;
54539;SDS011;40438;52.992;18.604;2023-06-22T13:11:25;2.80;;;2.42;;
54539;SDS011;40438;52.992;18.604;2023-06-22T13:13:51;5.00;;;2.30;;
54539;SDS011;40438;52.992;18.604;2023-06-22T13:16:17;3.00;;;2.40;;
54539;SDS011;40438;52.992;18.604;2023-06-22T13:18:42;5.07;;;2.40;;
54539;SDS011;40438;52.992;18.604;2023-06-22T13:21:08;3.60;;;2.33;;
54539;SDS011;40438;52.992;18.604;2023-06-22T13:23:34;4.85;;;2.53;;
54539;SDS011;40438;52.992;18.604;2023-06-22T13:26:01;3.40;;;2.40;;
54539;SDS011;40438;52.992;18.604;2023-06-22T13:28:27;3.47;;;2.25;;
54539;SDS011;40438;52.992;18.604;2023-06-22T13:30:53;3.78;;;2.70;;
54539;SDS011;40438;52.992;18.604;2023-06-22T13:33:19;4.00;;;2.35;;
54539;SDS011;40438;52.992;18.604;2023-06-22T13:35:44;3.13;;;2.47;;
54539;SDS011;40438;52.992;18.604;2023-06-22T13:38:10;4.30;;;2.20;;
54539;SDS011;40438;52.992;18.604;2023-06-22T13:40:36;3.63;;;2.20;;
54539;SDS011;40438;52.992;18.604;2023-06-22T13:43:03;3.45;;;2.40;;
54539;SDS011;40438;52.992;18.604;2023-06-22T13:45:29;2.40;;;2.20;;
54539;SDS011;40438;52.992;18.604;2023-06-22T13:47:55;3.92;;;1.98;;
54539;SDS011;40438;52.992;18.604;2023-06-22T13:50:21;2.63;;;1.90;;
54539;SDS011;40438;52.992;18.604;2023-06-22T13:52:47;3.60;;;2.60;;
54539;SDS011;40438;52.992;18.604;2023-06-22T13:55:12;2.67;;;2.20;;
54539;SDS011;40438;52.992;18.604;2023-06-22T13:57:38;4.82;;;2.75;;
54539;SDS011;40438;52.992;18.604;2023-06-22T14:00:06;3.15;;;2.17;;
54539;SDS011;40438;52.992;18.604;2023-06-22T14:02:37;3.40;;;2.20;;
54539;SDS011;40438;52.992;18.604;2023-06-22T14:05:02;5.03;;;2.08;;
54539;SDS011;40438;52.992;18.604;2023-06-22T14:07:28;2.55;;;2.03;;
54539;SDS011;40438;52.992;18.604;2023-06-22T14:09:54;4.53;;;2.17;;
54539;SDS011;40438;52.992;18.604;2023-06-22T14:12:20;4.30;;;2.45;;
54539;SDS011;40438;52.992;18.604;2023-06-22T14:14:46;2.42;;;2.08;;
54539;SDS011;40438;52.992;18.604;2023-06-22T14:17:13;3.80;;;2.85;;
54539;SDS011;40438;52.992;18.604;2023-06-22T14:19:39;3.67;;;2.50;;
54539;SDS011;40438;52.992;18.604;2023-06-22T14:22:05;4.80;;;2.35;;